sensor_id;sensor_type;location;lat;lon;timestamp;temperature;humidity
37910;DHT22;23741;49.446;8.754;2022-09-20T00:03:04;15.50;70.10
37910;DHT22;23741;49.446;8.754;2022-09-20T00:05:06;15.50;69.10
37910;DHT22;23741;49.446;8.754;2022-09-20T00:07:09;15.50;69.20
37910;DHT22;23741;49.446;8.754;2022-09-20T00:09:11;15.50;69.20
37910;DHT22;23741;49.446;8.754;2022-09-20T00:11:13;15.60;69.20
37910;DHT22;23741;49.446;8.754;2022-09-20T00:13:16;15.60;69.20
37910;DHT22;23741;49.446;8.754;2022-09-20T00:15:17;15.60;69.30
37910;DHT22;23741;49.446;8.754;2022-09-20T00:17:19;15.60;69.40
37910;DHT22;23741;49.446;8.754;2022-09-20T00:19:21;15.60;69.30
37910;DHT22;23741;49.446;8.754;2022-09-20T00:21:24;15.60;69.30
37910;DHT22;23741;49.446;8.754;2022-09-20T00:23:26;15.60;69.40
37910;DHT22;23741;49.446;8.754;2022-09-20T00:25:27;15.60;69.40
37910;DHT22;23741;49.446;8.754;2022-09-20T00:27:30;15.60;69.50
37910;DHT22;23741;49.446;8.754;2022-09-20T00:29:32;15.60;69.50
37910;DHT22;23741;49.446;8.754;2022-09-20T00:31:33;15.70;69.60
37910;DHT22;23741;49.446;8.754;2022-09-20T00:33:37;15.70;69.50
37910;DHT22;23741;49.446;8.754;2022-09-20T00:35:58;15.70;69.40
37910;DHT22;23741;49.446;8.754;2022-09-20T00:37:59;15.70;69.40
37910;DHT22;23741;49.446;8.754;2022-09-20T00:40:02;15.70;69.40
37910;DHT22;23741;49.446;8.754;2022-09-20T00:42:04;15.70;69.20
37910;DHT22;23741;49.446;8.754;2022-09-20T00:48:34;15.80;69.20
37910;DHT22;23741;49.446;8.754;2022-09-20T00:50:36;15.80;69.20
37910;DHT22;23741;49.446;8.754;2022-09-20T00:52:41;15.80;69.10
37910;DHT22;23741;49.446;8.754;2022-09-20T00:54:44;15.80;69.20
37910;DHT22;23741;49.446;8.754;2022-09-20T00:56:46;15.80;69.20
37910;DHT22;23741;49.446;8.754;2022-09-20T01:01:09;15.80;69.20
37910;DHT22;23741;49.446;8.754;2022-09-20T01:03:11;15.80;69.10
37910;DHT22;23741;49.446;8.754;2022-09-20T01:05:15;15.80;69.20
37910;DHT22;23741;49.446;8.754;2022-09-20T01:07:19;15.80;69.10
37910;DHT22;23741;49.446;8.754;2022-09-20T01:09:25;15.80;69.00
37910;DHT22;23741;49.446;8.754;2022-09-20T01:11:29;15.70;68.80
37910;DHT22;23741;49.446;8.754;2022-09-20T01:13:31;15.70;68.80
37910;DHT22;23741;49.446;8.754;2022-09-20T01:15:33;15.70;68.90
37910;DHT22;23741;49.446;8.754;2022-09-20T01:17:37;15.80;68.90
37910;DHT22;23741;49.446;8.754;2022-09-20T01:19:46;15.70;68.80
37910;DHT22;23741;49.446;8.754;2022-09-20T01:21:49;15.70;68.80
37910;DHT22;23741;49.446;8.754;2022-09-20T01:28:22;15.70;68.80
37910;DHT22;23741;49.446;8.754;2022-09-20T01:30:25;15.70;68.70
37910;DHT22;23741;49.446;8.754;2022-09-20T01:32:33;15.70;68.50
37910;DHT22;23741;49.446;8.754;2022-09-20T01:34:36;15.70;68.60
37910;DHT22;23741;49.446;8.754;2022-09-20T01:36:46;15.60;68.60
37910;DHT22;23741;49.446;8.754;2022-09-20T01:45:27;15.60;68.70
37910;DHT22;23741;49.446;8.754;2022-09-20T01:47:40;15.60;68.70
37910;DHT22;23741;49.446;8.754;2022-09-20T01:59:14;15.50;68.80
37910;DHT22;23741;49.446;8.754;2022-09-20T02:10:37;15.50;69.00
37910;DHT22;23741;49.446;8.754;2022-09-20T02:12:51;15.50;69.10
37910;DHT22;23741;49.446;8.754;2022-09-20T02:14:59;15.50;69.10
37910;DHT22;23741;49.446;8.754;2022-09-20T02:17:17;15.50;69.10
37910;DHT22;23741;49.446;8.754;2022-09-20T02:21:32;15.50;69.10
37910;DHT22;23741;49.446;8.754;2022-09-20T02:28:41;15.50;69.10
37910;DHT22;23741;49.446;8.754;2022-09-20T02:30:22;15.50;69.10
37910;DHT22;23741;49.446;8.754;2022-09-20T02:41:06;15.50;68.90
37910;DHT22;23741;49.446;8.754;2022-09-20T02:43:29;15.50;68.90
37910;DHT22;23741;49.446;8.754;2022-09-20T02:47:50;15.50;68.90
37910;DHT22;23741;49.446;8.754;2022-09-20T02:54:31;15.40;68.90
37910;DHT22;23741;49.446;8.754;2022-09-20T02:56:40;15.50;68.90
37910;DHT22;23741;49.446;8.754;2022-09-20T03:00:47;15.40;68.70
37910;DHT22;23741;49.446;8.754;2022-09-20T03:03:40;15.40;68.70
37910;DHT22;23741;49.446;8.754;2022-09-20T03:09:46;15.40;68.70
37910;DHT22;23741;49.446;8.754;2022-09-20T03:11:58;15.40;68.60
37910;DHT22;23741;49.446;8.754;2022-09-20T03:18:30;15.30;68.70
37910;DHT22;23741;49.446;8.754;2022-09-20T03:21:08;15.30;68.70
37910;DHT22;23741;49.446;8.754;2022-09-20T03:25:19;15.30;68.70
37910;DHT22;23741;49.446;8.754;2022-09-20T03:41:09;15.20;68.60
37910;DHT22;23741;49.446;8.754;2022-09-20T03:43:53;15.20;68.80
37910;DHT22;23741;49.446;8.754;2022-09-20T03:48:09;15.10;68.70
37910;DHT22;23741;49.446;8.754;2022-09-20T03:54:55;15.10;68.70
37910;DHT22;23741;49.446;8.754;2022-09-20T04:11:04;15.00;69.10
37910;DHT22;23741;49.446;8.754;2022-09-20T04:20:02;15.00;69.00
37910;DHT22;23741;49.446;8.754;2022-09-20T04:22:06;15.00;68.90
37910;DHT22;23741;49.446;8.754;2022-09-20T04:24:15;15.10;69.00
37910;DHT22;23741;49.446;8.754;2022-09-20T04:26:19;15.00;68.90
37910;DHT22;23741;49.446;8.754;2022-09-20T04:28:42;15.10;68.80
37910;DHT22;23741;49.446;8.754;2022-09-20T04:30:47;15.00;68.70
37910;DHT22;23741;49.446;8.754;2022-09-20T04:39:33;15.00;68.70
37910;DHT22;23741;49.446;8.754;2022-09-20T04:43:56;15.00;68.80
37910;DHT22;23741;49.446;8.754;2022-09-20T04:52:59;15.00;68.90
37910;DHT22;23741;49.446;8.754;2022-09-20T05:04:11;15.00;69.10
37910;DHT22;23741;49.446;8.754;2022-09-20T05:06:37;15.00;68.90
37910;DHT22;23741;49.446;8.754;2022-09-20T05:15:42;15.00;69.10
37910;DHT22;23741;49.446;8.754;2022-09-20T05:24:19;14.90;68.90
37910;DHT22;23741;49.446;8.754;2022-09-20T05:26:31;14.90;69.00
37910;DHT22;23741;49.446;8.754;2022-09-20T05:28:40;14.90;69.00
37910;DHT22;23741;49.446;8.754;2022-09-20T05:30:46;14.90;69.20
37910;DHT22;23741;49.446;8.754;2022-09-20T05:34:59;14.90;69.30
37910;DHT22;23741;49.446;8.754;2022-09-20T05:37:18;14.90;69.40
37910;DHT22;23741;49.446;8.754;2022-09-20T05:39:35;15.00;69.50
37910;DHT22;23741;49.446;8.754;2022-09-20T05:44:10;15.00;69.40
37910;DHT22;23741;49.446;8.754;2022-09-20T05:46:20;15.00;69.50
37910;DHT22;23741;49.446;8.754;2022-09-20T05:48:43;15.10;69.60
37910;DHT22;23741;49.446;8.754;2022-09-20T05:51:04;15.00;69.50
37910;DHT22;23741;49.446;8.754;2022-09-20T05:59:42;15.00;69.40
37910;DHT22;23741;49.446;8.754;2022-09-20T06:01:56;15.10;69.30
37910;DHT22;23741;49.446;8.754;2022-09-20T06:04:18;15.00;69.10
37910;DHT22;23741;49.446;8.754;2022-09-20T06:19:35;15.00;69.10
37910;DHT22;23741;49.446;8.754;2022-09-20T06:23:54;15.00;69.00
37910;DHT22;23741;49.446;8.754;2022-09-20T06:26:01;15.00;69.10
37910;DHT22;23741;49.446;8.754;2022-09-20T06:28:05;15.00;69.20
37910;DHT22;23741;49.446;8.754;2022-09-20T06:30:13;15.00;69.10
37910;DHT22;23741;49.446;8.754;2022-09-20T06:32:16;15.00;69.10
37910;DHT22;23741;49.446;8.754;2022-09-20T06:34:18;15.00;70.00
37910;DHT22;23741;49.446;8.754;2022-09-20T06:41:21;15.00;69.40
37910;DHT22;23741;49.446;8.754;2022-09-20T06:43:29;15.00;69.50
37910;DHT22;23741;49.446;8.754;2022-09-20T06:45:31;15.00;69.40
37910;DHT22;23741;49.446;8.754;2022-09-20T06:47:33;15.00;69.40
37910;DHT22;23741;49.446;8.754;2022-09-20T06:49:39;15.00;69.60
37910;DHT22;23741;49.446;8.754;2022-09-20T06:51:47;15.00;69.80
37910;DHT22;23741;49.446;8.754;2022-09-20T06:53:51;15.10;69.80
37910;DHT22;23741;49.446;8.754;2022-09-20T06:55:53;15.10;69.90
37910;DHT22;23741;49.446;8.754;2022-09-20T06:57:55;15.10;69.90
37910;DHT22;23741;49.446;8.754;2022-09-20T06:59:56;15.10;69.90
37910;DHT22;23741;49.446;8.754;2022-09-20T07:01:58;15.10;70.00
37910;DHT22;23741;49.446;8.754;2022-09-20T07:04:00;15.20;70.10
37910;DHT22;23741;49.446;8.754;2022-09-20T07:06:03;15.20;70.00
37910;DHT22;23741;49.446;8.754;2022-09-20T07:08:05;15.20;70.10
37910;DHT22;23741;49.446;8.754;2022-09-20T07:10:07;15.30;70.40
37910;DHT22;23741;49.446;8.754;2022-09-20T07:12:08;15.30;70.50
37910;DHT22;23741;49.446;8.754;2022-09-20T07:14:12;15.30;70.70
37910;DHT22;23741;49.446;8.754;2022-09-20T07:16:16;15.40;71.00
37910;DHT22;23741;49.446;8.754;2022-09-20T07:18:17;15.40;70.70
37910;DHT22;23741;49.446;8.754;2022-09-20T07:20:19;15.50;70.90
37910;DHT22;23741;49.446;8.754;2022-09-20T07:22:22;15.50;70.90
37910;DHT22;23741;49.446;8.754;2022-09-20T07:24:24;15.60;71.00
37910;DHT22;23741;49.446;8.754;2022-09-20T07:26:26;15.60;70.90
37910;DHT22;23741;49.446;8.754;2022-09-20T07:28:29;15.60;70.80
37910;DHT22;23741;49.446;8.754;2022-09-20T07:30:31;15.70;70.90
37910;DHT22;23741;49.446;8.754;2022-09-20T07:32:33;15.70;70.90
37910;DHT22;23741;49.446;8.754;2022-09-20T07:34:35;15.80;70.80
37910;DHT22;23741;49.446;8.754;2022-09-20T07:36:36;15.80;70.60
37910;DHT22;23741;49.446;8.754;2022-09-20T07:38:38;15.80;70.50
37910;DHT22;23741;49.446;8.754;2022-09-20T07:40:40;15.90;70.40
37910;DHT22;23741;49.446;8.754;2022-09-20T07:42:42;15.90;70.20
37910;DHT22;23741;49.446;8.754;2022-09-20T07:44:46;15.90;70.20
37910;DHT22;23741;49.446;8.754;2022-09-20T07:46:48;15.90;70.00
37910;DHT22;23741;49.446;8.754;2022-09-20T07:48:50;15.90;69.90
37910;DHT22;23741;49.446;8.754;2022-09-20T07:50:53;16.00;70.00
37910;DHT22;23741;49.446;8.754;2022-09-20T07:52:55;16.00;70.20
37910;DHT22;23741;49.446;8.754;2022-09-20T07:54:57;16.10;70.10
37910;DHT22;23741;49.446;8.754;2022-09-20T07:56:59;16.10;70.10
37910;DHT22;23741;49.446;8.754;2022-09-20T07:59:01;16.10;70.00
37910;DHT22;23741;49.446;8.754;2022-09-20T08:01:03;16.10;69.50
37910;DHT22;23741;49.446;8.754;2022-09-20T08:03:05;16.10;69.60
37910;DHT22;23741;49.446;8.754;2022-09-20T08:05:07;16.10;69.70
37910;DHT22;23741;49.446;8.754;2022-09-20T08:07:09;16.10;69.60
37910;DHT22;23741;49.446;8.754;2022-09-20T08:09:11;16.20;69.70
37910;DHT22;23741;49.446;8.754;2022-09-20T08:11:14;16.20;69.60
37910;DHT22;23741;49.446;8.754;2022-09-20T08:13:17;16.20;69.80
37910;DHT22;23741;49.446;8.754;2022-09-20T08:15:39;16.30;70.00
37910;DHT22;23741;49.446;8.754;2022-09-20T08:17:41;16.30;70.00
37910;DHT22;23741;49.446;8.754;2022-09-20T08:19:42;16.30;69.70
37910;DHT22;23741;49.446;8.754;2022-09-20T08:21:45;16.30;69.40
37910;DHT22;23741;49.446;8.754;2022-09-20T08:23:47;16.40;69.50
37910;DHT22;23741;49.446;8.754;2022-09-20T08:25:48;16.40;69.40
37910;DHT22;23741;49.446;8.754;2022-09-20T08:27:53;16.40;69.10
37910;DHT22;23741;49.446;8.754;2022-09-20T08:29:55;16.40;69.20
37910;DHT22;23741;49.446;8.754;2022-09-20T08:31:57;16.50;69.40
37910;DHT22;23741;49.446;8.754;2022-09-20T08:34:02;16.50;69.40
37910;DHT22;23741;49.446;8.754;2022-09-20T08:36:05;16.50;69.40
37910;DHT22;23741;49.446;8.754;2022-09-20T08:38:07;16.50;69.50
37910;DHT22;23741;49.446;8.754;2022-09-20T08:40:29;16.60;69.50
37910;DHT22;23741;49.446;8.754;2022-09-20T08:42:34;16.50;69.40
37910;DHT22;23741;49.446;8.754;2022-09-20T08:44:48;16.60;69.20
37910;DHT22;23741;49.446;8.754;2022-09-20T08:47:12;16.60;69.00
37910;DHT22;23741;49.446;8.754;2022-09-20T08:49:22;16.60;68.80
37910;DHT22;23741;49.446;8.754;2022-09-20T08:51:28;16.70;68.70
37910;DHT22;23741;49.446;8.754;2022-09-20T08:53:31;16.70;68.60
37910;DHT22;23741;49.446;8.754;2022-09-20T08:55:33;16.70;68.70
37910;DHT22;23741;49.446;8.754;2022-09-20T08:57:38;16.70;69.00
37910;DHT22;23741;49.446;8.754;2022-09-20T08:59:39;16.70;69.10
37910;DHT22;23741;49.446;8.754;2022-09-20T09:01:41;16.80;69.10
37910;DHT22;23741;49.446;8.754;2022-09-20T09:03:43;16.80;68.90
37910;DHT22;23741;49.446;8.754;2022-09-20T09:05:49;16.80;68.50
37910;DHT22;23741;49.446;8.754;2022-09-20T09:07:52;16.90;68.60
37910;DHT22;23741;49.446;8.754;2022-09-20T09:09:54;16.90;68.20
37910;DHT22;23741;49.446;8.754;2022-09-20T09:11:56;16.90;67.80
37910;DHT22;23741;49.446;8.754;2022-09-20T09:14:03;16.90;67.60
37910;DHT22;23741;49.446;8.754;2022-09-20T09:16:07;16.90;67.50
37910;DHT22;23741;49.446;8.754;2022-09-20T09:18:10;16.90;67.40
37910;DHT22;23741;49.446;8.754;2022-09-20T09:20:16;16.90;67.20
37910;DHT22;23741;49.446;8.754;2022-09-20T09:22:29;16.90;67.60
37910;DHT22;23741;49.446;8.754;2022-09-20T09:24:37;16.90;67.70
37910;DHT22;23741;49.446;8.754;2022-09-20T09:26:39;17.00;68.00
37910;DHT22;23741;49.446;8.754;2022-09-20T09:28:41;17.00;67.80
37910;DHT22;23741;49.446;8.754;2022-09-20T09:30:44;17.00;67.60
37910;DHT22;23741;49.446;8.754;2022-09-20T09:32:49;17.00;67.40
37910;DHT22;23741;49.446;8.754;2022-09-20T09:34:51;17.10;67.70
37910;DHT22;23741;49.446;8.754;2022-09-20T09:36:53;17.10;67.40
37910;DHT22;23741;49.446;8.754;2022-09-20T09:43:19;17.20;67.90
37910;DHT22;23741;49.446;8.754;2022-09-20T09:45:31;17.20;67.20
37910;DHT22;23741;49.446;8.754;2022-09-20T09:47:33;17.20;66.90
37910;DHT22;23741;49.446;8.754;2022-09-20T09:49:37;17.30;67.20
37910;DHT22;23741;49.446;8.754;2022-09-20T09:52:11;17.40;66.80
37910;DHT22;23741;49.446;8.754;2022-09-20T09:54:15;17.40;66.80
37910;DHT22;23741;49.446;8.754;2022-09-20T09:58:35;17.50;67.10
37910;DHT22;23741;49.446;8.754;2022-09-20T10:00:39;17.50;67.00
37910;DHT22;23741;49.446;8.754;2022-09-20T10:05:07;17.60;67.40
37910;DHT22;23741;49.446;8.754;2022-09-20T10:07:13;17.60;66.40
37910;DHT22;23741;49.446;8.754;2022-09-20T10:09:22;17.70;66.70
37910;DHT22;23741;49.446;8.754;2022-09-20T10:15:48;17.80;66.10
37910;DHT22;23741;49.446;8.754;2022-09-20T10:22:13;17.90;65.40
37910;DHT22;23741;49.446;8.754;2022-09-20T10:28:58;18.00;65.30
37910;DHT22;23741;49.446;8.754;2022-09-20T10:31:12;18.10;65.60
37910;DHT22;23741;49.446;8.754;2022-09-20T10:38:10;18.30;65.50
37910;DHT22;23741;49.446;8.754;2022-09-20T10:47:09;18.50;64.00
37910;DHT22;23741;49.446;8.754;2022-09-20T10:51:32;18.60;64.70
37910;DHT22;23741;49.446;8.754;2022-09-20T10:55:46;18.80;64.20
37910;DHT22;23741;49.446;8.754;2022-09-20T10:58:23;18.90;63.70
37910;DHT22;23741;49.446;8.754;2022-09-20T11:00:42;18.90;64.40
37910;DHT22;23741;49.446;8.754;2022-09-20T11:10:13;19.20;62.00
37910;DHT22;23741;49.446;8.754;2022-09-20T11:14:20;19.20;60.40
37910;DHT22;23741;49.446;8.754;2022-09-20T11:18:34;19.30;61.30
37910;DHT22;23741;49.446;8.754;2022-09-20T11:20:45;19.30;61.50
37910;DHT22;23741;49.446;8.754;2022-09-20T11:22:51;19.40;61.90
37910;DHT22;23741;49.446;8.754;2022-09-20T11:24:57;19.40;61.70
37910;DHT22;23741;49.446;8.754;2022-09-20T11:31:24;19.60;61.60
37910;DHT22;23741;49.446;8.754;2022-09-20T11:33:28;19.60;61.20
37910;DHT22;23741;49.446;8.754;2022-09-20T11:37:34;19.60;60.50
37910;DHT22;23741;49.446;8.754;2022-09-20T11:41:54;19.60;60.80
37910;DHT22;23741;49.446;8.754;2022-09-20T11:44:04;19.60;60.80
37910;DHT22;23741;49.446;8.754;2022-09-20T11:46:08;19.60;60.70
37910;DHT22;23741;49.446;8.754;2022-09-20T11:48:15;19.60;60.70
37910;DHT22;23741;49.446;8.754;2022-09-20T11:57:04;19.40;59.40
37910;DHT22;23741;49.446;8.754;2022-09-20T11:59:19;19.40;59.90
37910;DHT22;23741;49.446;8.754;2022-09-20T12:01:24;19.40;59.90
37910;DHT22;23741;49.446;8.754;2022-09-20T12:03:36;19.40;59.80
37910;DHT22;23741;49.446;8.754;2022-09-20T12:05:39;19.40;60.10
37910;DHT22;23741;49.446;8.754;2022-09-20T12:07:41;19.30;59.60
37910;DHT22;23741;49.446;8.754;2022-09-20T12:09:45;19.30;60.20
37910;DHT22;23741;49.446;8.754;2022-09-20T12:11:52;19.30;60.60
37910;DHT22;23741;49.446;8.754;2022-09-20T12:13:59;19.30;61.00
37910;DHT22;23741;49.446;8.754;2022-09-20T12:22:35;19.40;60.50
37910;DHT22;23741;49.446;8.754;2022-09-20T12:24:37;19.40;60.40
37910;DHT22;23741;49.446;8.754;2022-09-20T12:26:46;19.40;60.50
37910;DHT22;23741;49.446;8.754;2022-09-20T12:31:21;19.40;60.10
37910;DHT22;23741;49.446;8.754;2022-09-20T12:33:17;19.40;59.90
37910;DHT22;23741;49.446;8.754;2022-09-20T12:37:37;19.40;60.20
37910;DHT22;23741;49.446;8.754;2022-09-20T12:39:39;19.40;60.30
37910;DHT22;23741;49.446;8.754;2022-09-20T12:41:52;19.40;60.20
37910;DHT22;23741;49.446;8.754;2022-09-20T12:43:55;19.50;58.20
37910;DHT22;23741;49.446;8.754;2022-09-20T12:45:57;19.50;59.10
37910;DHT22;23741;49.446;8.754;2022-09-20T12:48:14;19.50;59.50
37910;DHT22;23741;49.446;8.754;2022-09-20T12:50:17;19.60;60.00
37910;DHT22;23741;49.446;8.754;2022-09-20T12:54:50;19.70;59.70
37910;DHT22;23741;49.446;8.754;2022-09-20T12:56:53;19.80;60.10
37910;DHT22;23741;49.446;8.754;2022-09-20T12:58:55;19.90;60.40
37910;DHT22;23741;49.446;8.754;2022-09-20T13:05:33;20.10;59.30
37910;DHT22;23741;49.446;8.754;2022-09-20T13:07:41;20.10;59.40
37910;DHT22;23741;49.446;8.754;2022-09-20T13:09:45;20.20;59.00
37910;DHT22;23741;49.446;8.754;2022-09-20T13:11:48;20.30;59.00
37910;DHT22;23741;49.446;8.754;2022-09-20T13:16:03;20.30;59.10
37910;DHT22;23741;49.446;8.754;2022-09-20T13:18:10;20.40;59.50
37910;DHT22;23741;49.446;8.754;2022-09-20T13:20:19;20.50;59.40
37910;DHT22;23741;49.446;8.754;2022-09-20T13:22:37;20.50;59.40
37910;DHT22;23741;49.446;8.754;2022-09-20T13:24:45;20.60;59.10
37910;DHT22;23741;49.446;8.754;2022-09-20T13:26:48;20.70;58.30
37910;DHT22;23741;49.446;8.754;2022-09-20T13:28:51;20.80;58.80
37910;DHT22;23741;49.446;8.754;2022-09-20T13:31:14;20.80;59.30
37910;DHT22;23741;49.446;8.754;2022-09-20T13:33:23;20.90;59.20
37910;DHT22;23741;49.446;8.754;2022-09-20T13:35:25;21.00;58.40
37910;DHT22;23741;49.446;8.754;2022-09-20T13:37:32;21.00;58.70
37910;DHT22;23741;49.446;8.754;2022-09-20T13:39:36;21.10;59.40
37910;DHT22;23741;49.446;8.754;2022-09-20T13:41:38;21.10;58.70
37910;DHT22;23741;49.446;8.754;2022-09-20T13:43:40;21.20;58.90
37910;DHT22;23741;49.446;8.754;2022-09-20T13:45:43;21.30;59.30
37910;DHT22;23741;49.446;8.754;2022-09-20T13:47:49;21.30;58.00
37910;DHT22;23741;49.446;8.754;2022-09-20T13:49:51;21.30;57.40
37910;DHT22;23741;49.446;8.754;2022-09-20T13:51:53;21.30;57.40
37910;DHT22;23741;49.446;8.754;2022-09-20T13:53:54;21.40;57.10
37910;DHT22;23741;49.446;8.754;2022-09-20T13:56:17;21.40;56.70
37910;DHT22;23741;49.446;8.754;2022-09-20T13:58:28;21.50;57.00
37910;DHT22;23741;49.446;8.754;2022-09-20T14:00:30;21.40;56.80
37910;DHT22;23741;49.446;8.754;2022-09-20T14:02:32;21.40;56.30
37910;DHT22;23741;49.446;8.754;2022-09-20T14:04:34;21.30;56.20
37910;DHT22;23741;49.446;8.754;2022-09-20T14:06:38;21.30;56.30
37910;DHT22;23741;49.446;8.754;2022-09-20T14:08:42;21.30;56.40
37910;DHT22;23741;49.446;8.754;2022-09-20T14:10:44;21.30;55.10
37910;DHT22;23741;49.446;8.754;2022-09-20T14:12:46;21.20;55.50
37910;DHT22;23741;49.446;8.754;2022-09-20T14:14:49;21.20;56.20
37910;DHT22;23741;49.446;8.754;2022-09-20T14:16:52;21.10;55.80
37910;DHT22;23741;49.446;8.754;2022-09-20T14:18:54;21.00;55.80
37910;DHT22;23741;49.446;8.754;2022-09-20T14:20:58;21.00;56.00
37910;DHT22;23741;49.446;8.754;2022-09-20T14:23:00;21.00;55.60
37910;DHT22;23741;49.446;8.754;2022-09-20T14:27:16;20.80;55.70
37910;DHT22;23741;49.446;8.754;2022-09-20T14:31:32;20.70;55.10
37910;DHT22;23741;49.446;8.754;2022-09-20T14:33:38;20.70;55.70
37910;DHT22;23741;49.446;8.754;2022-09-20T14:35:48;20.60;56.00
37910;DHT22;23741;49.446;8.754;2022-09-20T14:37:51;20.60;56.10
37910;DHT22;23741;49.446;8.754;2022-09-20T14:39:55;20.50;56.60
37910;DHT22;23741;49.446;8.754;2022-09-20T14:41:57;20.50;56.20
37910;DHT22;23741;49.446;8.754;2022-09-20T14:43:59;20.50;55.30
37910;DHT22;23741;49.446;8.754;2022-09-20T14:46:04;20.40;55.70
37910;DHT22;23741;49.446;8.754;2022-09-20T14:50:22;20.40;56.60
37910;DHT22;23741;49.446;8.754;2022-09-20T14:54:28;20.40;55.90
37910;DHT22;23741;49.446;8.754;2022-09-20T14:56:35;20.40;55.80
37910;DHT22;23741;49.446;8.754;2022-09-20T15:01:03;20.40;56.10
37910;DHT22;23741;49.446;8.754;2022-09-20T15:03:06;20.40;56.10
37910;DHT22;23741;49.446;8.754;2022-09-20T15:05:22;20.40;55.80
37910;DHT22;23741;49.446;8.754;2022-09-20T15:07:26;20.30;55.70
37910;DHT22;23741;49.446;8.754;2022-09-20T15:09:28;20.30;56.50
37910;DHT22;23741;49.446;8.754;2022-09-20T15:11:30;20.30;56.60
37910;DHT22;23741;49.446;8.754;2022-09-20T15:13:32;20.20;56.20
37910;DHT22;23741;49.446;8.754;2022-09-20T15:15:33;20.20;56.20
37910;DHT22;23741;49.446;8.754;2022-09-20T15:17:35;20.20;56.30
37910;DHT22;23741;49.446;8.754;2022-09-20T15:19:37;20.10;56.30
37910;DHT22;23741;49.446;8.754;2022-09-20T15:21:38;20.10;56.60
37910;DHT22;23741;49.446;8.754;2022-09-20T15:23:40;20.10;56.40
37910;DHT22;23741;49.446;8.754;2022-09-20T15:25:42;20.00;56.70
37910;DHT22;23741;49.446;8.754;2022-09-20T15:27:44;20.00;57.10
37910;DHT22;23741;49.446;8.754;2022-09-20T15:29:46;20.00;57.20
37910;DHT22;23741;49.446;8.754;2022-09-20T15:31:48;19.90;57.40
37910;DHT22;23741;49.446;8.754;2022-09-20T15:33:50;19.90;57.30
37910;DHT22;23741;49.446;8.754;2022-09-20T15:35:52;19.90;57.40
37910;DHT22;23741;49.446;8.754;2022-09-20T15:37:54;19.90;57.50
37910;DHT22;23741;49.446;8.754;2022-09-20T15:39:55;19.80;57.40
37910;DHT22;23741;49.446;8.754;2022-09-20T15:41:57;19.80;57.10
37910;DHT22;23741;49.446;8.754;2022-09-20T15:43:59;19.80;57.10
37910;DHT22;23741;49.446;8.754;2022-09-20T15:46:18;19.70;57.30
37910;DHT22;23741;49.446;8.754;2022-09-20T15:48:21;19.70;56.90
37910;DHT22;23741;49.446;8.754;2022-09-20T15:50:23;19.60;57.20
37910;DHT22;23741;49.446;8.754;2022-09-20T15:52:26;19.60;57.60
37910;DHT22;23741;49.446;8.754;2022-09-20T15:54:34;19.60;57.70
37910;DHT22;23741;49.446;8.754;2022-09-20T15:56:37;19.60;57.80
37910;DHT22;23741;49.446;8.754;2022-09-20T15:58:43;19.50;57.90
37910;DHT22;23741;49.446;8.754;2022-09-20T16:00:45;19.50;58.10
37910;DHT22;23741;49.446;8.754;2022-09-20T16:02:49;19.50;58.00
37910;DHT22;23741;49.446;8.754;2022-09-20T16:04:51;19.50;58.10
37910;DHT22;23741;49.446;8.754;2022-09-20T16:06:56;19.40;58.20
37910;DHT22;23741;49.446;8.754;2022-09-20T16:08:57;19.40;58.30
37910;DHT22;23741;49.446;8.754;2022-09-20T16:10:59;19.30;58.40
37910;DHT22;23741;49.446;8.754;2022-09-20T16:13:01;19.30;58.50
37910;DHT22;23741;49.446;8.754;2022-09-20T16:15:03;19.30;58.50
37910;DHT22;23741;49.446;8.754;2022-09-20T16:17:04;19.30;58.30
37910;DHT22;23741;49.446;8.754;2022-09-20T16:19:08;19.30;58.30
37910;DHT22;23741;49.446;8.754;2022-09-20T16:21:21;19.20;58.20
37910;DHT22;23741;49.446;8.754;2022-09-20T16:23:23;19.20;58.40
37910;DHT22;23741;49.446;8.754;2022-09-20T16:25:26;19.20;58.50
37910;DHT22;23741;49.446;8.754;2022-09-20T16:27:28;19.10;58.50
37910;DHT22;23741;49.446;8.754;2022-09-20T16:29:31;19.10;58.60
37910;DHT22;23741;49.446;8.754;2022-09-20T16:33:35;19.00;58.80
37910;DHT22;23741;49.446;8.754;2022-09-20T16:35:37;19.00;58.90
37910;DHT22;23741;49.446;8.754;2022-09-20T16:37:38;19.00;59.00
37910;DHT22;23741;49.446;8.754;2022-09-20T16:39:40;18.90;59.00
37910;DHT22;23741;49.446;8.754;2022-09-20T16:41:43;18.90;59.20
37910;DHT22;23741;49.446;8.754;2022-09-20T16:43:45;18.90;59.30
37910;DHT22;23741;49.446;8.754;2022-09-20T16:46:00;18.90;59.40
37910;DHT22;23741;49.446;8.754;2022-09-20T16:48:02;18.80;59.40
37910;DHT22;23741;49.446;8.754;2022-09-20T16:50:09;18.80;59.50
37910;DHT22;23741;49.446;8.754;2022-09-20T16:52:12;18.80;59.50
37910;DHT22;23741;49.446;8.754;2022-09-20T16:54:14;18.70;59.60
37910;DHT22;23741;49.446;8.754;2022-09-20T16:56:17;18.70;59.60
37910;DHT22;23741;49.446;8.754;2022-09-20T16:58:24;18.70;59.60
37910;DHT22;23741;49.446;8.754;2022-09-20T17:00:26;18.60;59.70
37910;DHT22;23741;49.446;8.754;2022-09-20T17:02:28;18.70;59.70
37910;DHT22;23741;49.446;8.754;2022-09-20T17:04:29;18.60;59.70
37910;DHT22;23741;49.446;8.754;2022-09-20T17:06:32;18.60;59.70
37910;DHT22;23741;49.446;8.754;2022-09-20T17:08:34;18.60;59.70
37910;DHT22;23741;49.446;8.754;2022-09-20T17:10:40;18.50;59.70
37910;DHT22;23741;49.446;8.754;2022-09-20T17:12:45;18.50;59.70
37910;DHT22;23741;49.446;8.754;2022-09-20T17:14:48;18.50;59.80
37910;DHT22;23741;49.446;8.754;2022-09-20T17:16:50;18.40;59.80
37910;DHT22;23741;49.446;8.754;2022-09-20T17:18:52;18.40;59.80
37910;DHT22;23741;49.446;8.754;2022-09-20T17:20:54;18.30;59.80
37910;DHT22;23741;49.446;8.754;2022-09-20T17:22:56;18.40;59.90
37910;DHT22;23741;49.446;8.754;2022-09-20T17:24:58;18.30;59.90
37910;DHT22;23741;49.446;8.754;2022-09-20T17:27:00;18.20;60.00
37910;DHT22;23741;49.446;8.754;2022-09-20T17:29:02;18.20;60.00
37910;DHT22;23741;49.446;8.754;2022-09-20T17:31:05;18.20;60.10
37910;DHT22;23741;49.446;8.754;2022-09-20T17:33:07;18.10;60.10
37910;DHT22;23741;49.446;8.754;2022-09-20T17:35:09;18.10;60.10
37910;DHT22;23741;49.446;8.754;2022-09-20T17:37:10;18.10;60.20
37910;DHT22;23741;49.446;8.754;2022-09-20T17:39:13;18.00;60.10
37910;DHT22;23741;49.446;8.754;2022-09-20T17:41:17;17.90;60.10
37910;DHT22;23741;49.446;8.754;2022-09-20T17:43:19;17.90;60.20
37910;DHT22;23741;49.446;8.754;2022-09-20T17:45:21;17.90;60.20
37910;DHT22;23741;49.446;8.754;2022-09-20T17:47:23;17.80;60.20
37910;DHT22;23741;49.446;8.754;2022-09-20T17:49:25;17.80;60.40
37910;DHT22;23741;49.446;8.754;2022-09-20T17:51:29;17.80;60.40
37910;DHT22;23741;49.446;8.754;2022-09-20T17:53:31;17.70;60.30
37910;DHT22;23741;49.446;8.754;2022-09-20T17:55:33;17.70;60.40